EmailTwitter


Observations de surface / Québec / LFRZ

Régions: Québec | Canada | États-Unis | Europe | France | UK | Elsewhere
Station
Affichage
Infos & localisation pour LFRZ | Aide pour décoder les METARs

Observations prises le 2017-05-26 à 01H30 UTC à ST. NAZAIRE/MONT, FR (LFRZ)

Température: 17.0 Celsius

Point de rosée: 12.0 Celsius

Humidité relative: 72%

Vents: Est-nord-est à 13 km/h ou 7 noeuds.

Pression au niveau moyen de la mer: 101.30 kilopascals.

Observation METAR:

LFRZ 260130Z AUTO 07007KT CAVOK 17/12 Q1013 NOSIG=